Time;durP1;ratioP1;P1;durP2;ratioP2;P2;SDS_P1;SDS_P2;PMS_P1;PMS_P2;Temp;Humidity;BMP_temperature;BMP_pressure;BME280_temperature;BME280_humidity;BME280_pressure;Samples;Min_cycle;Max_cycle;Signal;HPM_P1;HPM_P2
2023/08/16 00:01:30;;;;;;;6.33;5.83;;;23.90;1.00;;;;;;5063490;28;20953;-74
2023/08/16 00:03:57;;;;;;;5.73;5.27;;;24.00;1.00;;;;;;5055869;28;20543;-73
2023/08/16 00:06:24;;;;;;;5.57;5.17;;;23.90;1.00;;;;;;5055830;28;20711;-73
2023/08/16 00:08:53;;;;;;;6.33;5.73;;;23.80;1.00;;;;;;5058877;28;20963;-73
2023/08/16 00:11:21;;;;;;;6.23;5.73;;;23.80;1.00;;;;;;5057569;28;20620;-73
2023/08/16 00:13:48;;;;;;;7.77;6.00;;;23.80;1.00;;;;;;5057151;28;20958;-75
2023/08/16 00:16:15;;;;;;;6.80;6.10;;;23.80;1.00;;;;;;5056629;28;20520;-72
2023/08/16 00:18:42;;;;;;;7.20;5.70;;;23.80;1.00;;;;;;5053907;28;20547;-74
2023/08/16 00:21:09;;;;;;;6.40;5.90;;;23.70;1.00;;;;;;5056279;28;20572;-73
2023/08/16 00:23:36;;;;;;;5.93;5.53;;;23.70;1.00;;;;;;5060712;28;20547;-73
2023/08/16 00:26:03;;;;;;;5.83;5.33;;;23.60;1.00;;;;;;5053553;28;20602;-76
2023/08/16 00:28:31;;;;;;;6.53;5.93;;;23.60;1.00;;;;;;5059809;28;20849;-73
2023/08/16 00:30:59;;;;;;;6.53;5.80;;;23.60;1.00;;;;;;5061634;28;22735;-73
2023/08/16 00:33:25;;;;;;;7.83;7.00;;;23.50;1.00;;;;;;5062867;28;20556;-73
2023/08/16 00:35:53;;;;;;;6.00;5.50;;;23.50;1.00;;;;;;5059014;28;20553;-74
2023/08/16 00:38:20;;;;;;;6.83;6.07;;;23.50;1.00;;;;;;5056513;28;20481;-72
2023/08/16 00:40:50;;;;;;;6.10;5.53;;;23.50;1.00;;;;;;5059536;28;21002;-73
2023/08/16 00:43:18;;;;;;;6.67;6.07;;;23.50;1.00;;;;;;5058935;28;20540;-73
2023/08/16 00:45:48;;;;;;;5.80;5.30;;;23.50;1.00;;;;;;5061047;28;20456;-73
2023/08/16 00:48:19;;;;;;;5.73;5.27;;;23.50;1.00;;;;;;5060639;28;20548;-73
2023/08/16 00:50:47;;;;;;;7.47;5.80;;;23.50;1.00;;;;;;5056278;28;20606;-74
2023/08/16 00:53:17;;;;;;;7.80;7.17;;;23.60;1.00;;;;;;5060160;28;20462;-74
2023/08/16 00:55:44;;;;;;;9.27;8.50;;;23.60;1.00;;;;;;5058985;28;20515;-73
2023/08/16 00:58:11;;;;;;;9.90;9.00;;;23.60;1.00;;;;;;5056914;28;20490;-73
2023/08/16 01:00:38;;;;;;;15.17;13.73;;;23.60;1.00;;;;;;5061284;28;20569;-73
2023/08/16 01:03:07;;;;;;;15.17;13.77;;;23.50;1.00;;;;;;5058006;22;21001;-75
2023/08/16 01:05:34;;;;;;;15.37;14.10;;;23.60;1.00;;;;;;5033956;28;20456;-75
2023/08/16 01:08:02;;;;;;;16.40;13.40;;;23.50;1.00;;;;;;5040806;28;20925;-75
2023/08/16 01:10:38;;;;;;;15.67;14.07;;;23.50;1.00;;;;;;5041354;28;20965;-76
2023/08/16 01:13:09;;;;;;;14.20;13.10;;;23.50;1.00;;;;;;5041371;28;20458;-76
2023/08/16 01:15:40;;;;;;;12.87;11.80;;;23.50;1.00;;;;;;5039302;28;20488;-75
2023/08/16 01:18:10;;;;;;;14.20;13.00;;;23.50;1.00;;;;;;5043662;28;20456;-76
2023/08/16 01:20:38;;;;;;;11.70;10.73;;;23.60;1.00;;;;;;5042856;28;20961;-76
2023/08/16 01:23:07;;;;;;;12.03;10.93;;;23.60;1.00;;;;;;5042354;28;22349;-76
2023/08/16 01:25:41;;;;;;;11.70;10.70;;;23.60;1.00;;;;;;5038433;28;20485;-75
2023/08/16 01:28:10;;;;;;;10.10;9.30;;;23.60;1.00;;;;;;5041085;28;20459;-76
2023/08/16 01:30:39;;;;;;;10.03;9.03;;;23.50;1.00;;;;;;5042475;28;20483;-76
2023/08/16 01:33:07;;;;;;;10.30;9.30;;;23.60;1.00;;;;;;5038379;28;20452;-76
2023/08/16 01:35:35;;;;;;;9.83;8.73;;;23.50;1.00;;;;;;5041419;28;20466;-75
2023/08/16 01:38:02;;;;;;;8.77;7.90;;;23.50;1.00;;;;;;5040144;28;20487;-75
2023/08/16 01:40:35;;;;;;;8.70;7.90;;;23.50;1.00;;;;;;5038192;28;20500;-75
2023/08/16 01:43:05;;;;;;;8.50;7.93;;;23.50;1.00;;;;;;5039420;28;20453;-76
2023/08/16 01:45:34;;;;;;;7.90;7.20;;;23.50;1.00;;;;;;5042015;28;20471;-76
2023/08/16 01:48:03;;;;;;;7.57;6.97;;;23.50;1.00;;;;;;5037451;28;20460;-76
2023/08/16 01:50:30;;;;;;;7.33;6.77;;;23.40;1.00;;;;;;5027685;28;21284;-75
2023/08/16 01:52:58;;;;;;;9.30;8.13;;;23.30;1.00;;;;;;5039584;28;20441;-76
2023/08/16 01:55:25;;;;;;;7.90;7.07;;;23.20;1.00;;;;;;5040876;28;20917;-75
2023/08/16 01:57:52;;;;;;;7.93;7.17;;;23.10;1.00;;;;;;5031874;28;20469;-75
2023/08/16 02:00:19;;;;;;;8.27;7.60;;;23.10;1.00;;;;;;5037963;28;20470;-76
2023/08/16 02:02:47;;;;;;;8.17;7.50;;;23.10;1.00;;;;;;5041708;28;20463;-75
2023/08/16 02:05:14;;;;;;;8.70;7.90;;;23.10;1.00;;;;;;5038417;28;20468;-76
2023/08/16 02:07:41;;;;;;;8.30;7.50;;;23.10;1.00;;;;;;5037566;28;20475;-76
2023/08/16 02:10:08;;;;;;;8.00;7.40;;;23.10;1.00;;;;;;5031597;28;20475;-75
2023/08/16 02:12:36;;;;;;;8.73;8.10;;;23.10;1.00;;;;;;5041150;28;20466;-76
2023/08/16 02:15:03;;;;;;;9.87;8.57;;;23.10;1.00;;;;;;5041980;28;20467;-75
2023/08/16 02:17:30;;;;;;;9.10;8.40;;;23.10;1.00;;;;;;5024569;28;20471;-76
2023/08/16 02:19:58;;;;;;;10.13;8.60;;;23.20;1.00;;;;;;5031935;28;20467;-75
2023/08/16 02:22:25;;;;;;;10.03;9.13;;;23.10;1.00;;;;;;5031519;28;21373;-75
2023/08/16 02:24:52;;;;;;;9.07;8.30;;;23.00;1.00;;;;;;5027648;28;20459;-75
2023/08/16 02:27:19;;;;;;;9.80;9.10;;;23.00;1.00;;;;;;5028027;28;20509;-76
2023/08/16 02:29:46;;;;;;;9.47;8.57;;;23.00;1.00;;;;;;5037458;28;23249;-75
2023/08/16 02:32:13;;;;;;;10.43;9.73;;;22.90;1.00;;;;;;5041847;28;20574;-75
2023/08/16 02:34:40;;;;;;;10.07;9.13;;;22.80;1.00;;;;;;5038813;28;20462;-75
2023/08/16 02:37:08;;;;;;;10.47;9.47;;;22.80;1.00;;;;;;5037775;28;20475;-75
2023/08/16 02:39:35;;;;;;;9.50;8.70;;;22.80;1.00;;;;;;5042059;28;20577;-76
2023/08/16 02:42:03;;;;;;;9.50;8.70;;;22.80;1.00;;;;;;5030791;28;20491;-75
2023/08/16 02:44:30;;;;;;;10.23;9.33;;;22.70;1.00;;;;;;5040521;28;20459;-75
2023/08/16 02:46:57;;;;;;;11.57;10.37;;;22.70;1.00;;;;;;5044826;28;20456;-74
2023/08/16 02:49:27;;;;;;;10.63;9.73;;;22.70;1.00;;;;;;5043487;28;20473;-74
2023/08/16 02:51:54;;;;;;;11.10;10.10;;;22.70;1.00;;;;;;5038930;28;20557;-75
2023/08/16 02:54:22;;;;;;;10.80;9.70;;;22.70;1.00;;;;;;5041859;28;20931;-75
2023/08/16 02:56:49;;;;;;;9.97;9.00;;;22.80;1.00;;;;;;5040771;28;20493;-75
2023/08/16 02:59:16;;;;;;;10.87;9.80;;;22.80;1.00;;;;;;5044363;28;20525;-75
2023/08/16 03:01:43;;;;;;;12.87;10.93;;;22.80;1.00;;;;;;5039877;28;20473;-75
2023/08/16 03:04:11;;;;;;;11.97;10.70;;;22.90;1.00;;;;;;5042180;28;21368;-74
2023/08/16 03:06:37;;;;;;;11.40;10.03;;;22.90;1.00;;;;;;5037931;28;20479;-74
2023/08/16 03:09:04;;;;;;;11.20;9.97;;;23.00;1.00;;;;;;5043529;28;20473;-75
2023/08/16 03:11:33;;;;;;;11.57;10.40;;;23.00;1.00;;;;;;5046025;28;20865;-75
2023/08/16 03:14:00;;;;;;;11.37;10.43;;;22.90;1.00;;;;;;5044901;28;20502;-75
2023/08/16 03:16:27;;;;;;;10.87;10.07;;;22.80;1.00;;;;;;5042808;28;20566;-75
2023/08/16 03:18:56;;;;;;;11.13;10.03;;;22.90;1.00;;;;;;5041460;28;21042;-75
2023/08/16 03:21:24;;;;;;;10.77;9.77;;;22.90;1.00;;;;;;5041881;28;21122;-74
2023/08/16 03:23:51;;;;;;;12.50;10.33;;;23.00;1.00;;;;;;5041061;28;20453;-74
2023/08/16 03:26:17;;;;;;;13.07;11.90;;;23.00;1.00;;;;;;5040760;28;20473;-74
2023/08/16 03:28:48;;;;;;;11.43;10.37;;;22.90;1.00;;;;;;5038508;28;20595;-75
2023/08/16 03:31:15;;;;;;;12.33;11.23;;;22.90;1.00;;;;;;5028449;28;20509;-75
2023/08/16 03:33:42;;;;;;;11.60;10.50;;;22.90;1.00;;;;;;5033945;28;21010;-75
2023/08/16 03:36:09;;;;;;;16.40;11.90;;;22.80;1.00;;;;;;5023610;28;20469;-75
2023/08/16 03:38:36;;;;;;;11.77;10.63;;;22.90;1.00;;;;;;5040118;28;21015;-74
2023/08/16 03:41:03;;;;;;;11.30;10.50;;;22.90;1.00;;;;;;5041085;28;20573;-75
2023/08/16 03:43:31;;;;;;;14.60;10.93;;;22.90;1.00;;;;;;5041380;28;20478;-75
2023/08/16 03:45:59;;;;;;;12.27;11.27;;;22.90;1.00;;;;;;5042616;28;20539;-75
2023/08/16 03:48:26;;;;;;;14.00;12.30;;;22.90;1.00;;;;;;5040750;28;20597;-75
2023/08/16 03:50:53;;;;;;;11.83;10.73;;;22.80;1.00;;;;;;5045416;28;20461;-75
2023/08/16 03:53:20;;;;;;;12.27;11.17;;;22.80;1.00;;;;;;5039267;28;20539;-75
2023/08/16 03:55:47;;;;;;;12.23;10.80;;;22.70;1.00;;;;;;5037205;28;20522;-75
2023/08/16 03:58:14;;;;;;;13.97;12.57;;;22.60;1.00;;;;;;5039963;28;20927;-75
2023/08/16 04:00:41;;;;;;;12.70;11.40;;;22.50;1.00;;;;;;5041296;28;20490;-75
2023/08/16 04:03:09;;;;;;;13.13;11.93;;;22.50;1.00;;;;;;5040045;28;20476;-75
2023/08/16 04:05:36;;;;;;;13.27;12.27;;;22.50;1.00;;;;;;5035214;28;20552;-75
2023/08/16 04:08:03;;;;;;;12.90;11.60;;;22.40;1.00;;;;;;5041156;28;20965;-75
2023/08/16 04:10:30;;;;;;;12.50;11.40;;;22.40;1.00;;;;;;5038584;28;20470;-74
2023/08/16 04:12:58;;;;;;;12.63;11.63;;;22.40;1.00;;;;;;5034767;28;20462;-75
2023/08/16 04:15:25;;;;;;;12.83;11.53;;;22.40;1.00;;;;;;5042597;28;20485;-75
2023/08/16 04:17:52;;;;;;;13.47;11.30;;;22.40;1.00;;;;;;5042059;28;20575;-74
2023/08/16 04:20:20;;;;;;;13.77;12.50;;;22.40;1.00;;;;;;5041438;28;20453;-75
2023/08/16 04:22:47;;;;;;;13.07;11.97;;;22.40;1.00;;;;;;5038202;28;20534;-75
2023/08/16 04:25:14;;;;;;;13.47;12.23;;;22.30;1.00;;;;;;5042551;28;20487;-76
2023/08/16 04:27:42;;;;;;;17.13;13.90;;;22.30;1.00;;;;;;5040795;28;21006;-76
2023/08/16 04:30:10;;;;;;;13.30;12.10;;;22.30;1.00;;;;;;5036553;28;20470;-76
2023/08/16 04:32:37;;;;;;;13.47;12.17;;;22.20;1.00;;;;;;5036523;28;21867;-76
2023/08/16 04:35:05;;;;;;;14.13;12.83;;;22.30;1.00;;;;;;5043162;28;20453;-75
2023/08/16 04:37:33;;;;;;;13.73;12.40;;;22.20;1.00;;;;;;5042286;28;20480;-76
2023/08/16 04:40:00;;;;;;;16.97;13.07;;;22.20;1.00;;;;;;5037098;28;20550;-76
2023/08/16 04:42:27;;;;;;;15.73;13.37;;;22.20;1.00;;;;;;5043565;28;20522;-75
2023/08/16 04:44:55;;;;;;;13.60;12.40;;;22.20;1.00;;;;;;5040965;28;20476;-76
2023/08/16 04:47:22;;;;;;;15.23;13.83;;;22.30;1.00;;;;;;5039557;28;20587;-75
2023/08/16 04:49:51;;;;;;;14.30;12.93;;;22.30;1.00;;;;;;5037364;28;21061;-76
2023/08/16 04:52:18;;;;;;;17.47;12.73;;;22.40;1.00;;;;;;5038989;28;20521;-76
2023/08/16 04:54:46;;;;;;;12.80;11.70;;;22.40;1.00;;;;;;5039132;28;20475;-75
2023/08/16 04:57:13;;;;;;;15.00;13.50;;;22.40;1.00;;;;;;5038312;28;20475;-75
2023/08/16 04:59:40;;;;;;;13.53;12.33;;;22.50;1.00;;;;;;5043461;28;20540;-74
2023/08/16 05:02:08;;;;;;;14.10;12.90;;;22.50;1.00;;;;;;5044164;28;20549;-75
2023/08/16 05:04:35;;;;;;;14.13;12.63;;;22.50;1.00;;;;;;5043507;28;21010;-74
2023/08/16 05:07:01;;;;;;;13.47;12.30;;;22.50;1.00;;;;;;5041939;28;20468;-75
2023/08/16 05:09:28;;;;;;;13.30;12.03;;;22.50;1.00;;;;;;5040830;28;20532;-75
2023/08/16 05:11:57;;;;;;;14.47;12.57;;;22.60;1.00;;;;;;5041189;28;20648;-75
2023/08/16 05:14:24;;;;;;;13.90;12.70;;;22.60;1.00;;;;;;5043332;28;20465;-74
2023/08/16 05:16:51;;;;;;;13.67;12.37;;;22.60;1.00;;;;;;5043065;28;20969;-75
2023/08/16 05:19:18;;;;;;;14.53;12.90;;;22.70;1.00;;;;;;5016993;28;20469;-74
2023/08/16 05:21:46;;;;;;;13.80;12.37;;;22.70;1.00;;;;;;5042515;28;20554;-75
2023/08/16 05:24:13;;;;;;;13.90;12.60;;;22.80;1.00;;;;;;5044297;28;20968;-74
2023/08/16 05:26:40;;;;;;;13.23;11.70;;;22.70;1.00;;;;;;5043499;28;20481;-76
2023/08/16 05:29:08;;;;;;;12.97;11.90;;;22.70;1.00;;;;;;5043602;28;20658;-75
2023/08/16 05:31:36;;;;;;;13.00;11.70;;;22.70;1.00;;;;;;5039948;28;20944;-75
2023/08/16 05:34:07;;;;;;;14.23;12.93;;;22.80;1.00;;;;;;5041707;28;20940;-75
2023/08/16 05:36:45;;;;;;;13.87;12.60;;;22.80;1.00;;;;;;5035498;28;20469;-75
2023/08/16 05:39:12;;;;;;;16.80;13.40;;;22.80;1.00;;;;;;5032006;28;20578;-75
2023/08/16 05:41:39;;;;;;;13.73;12.40;;;22.90;1.00;;;;;;5033493;28;20563;-75
2023/08/16 05:44:08;;;;;;;12.40;11.20;;;23.10;1.00;;;;;;5041855;28;20980;-75
2023/08/16 05:46:34;;;;;;;12.47;11.27;;;23.30;1.00;;;;;;5045092;28;20573;-75
2023/08/16 05:49:02;;;;;;;13.83;12.63;;;23.40;1.00;;;;;;5043344;28;20646;-76
2023/08/16 05:51:29;;;;;;;12.63;11.63;;;23.50;1.00;;;;;;5039682;28;20459;-75
2023/08/16 05:53:55;;;;;;;14.33;13.03;;;23.60;1.00;;;;;;5043146;28;20452;-76
2023/08/16 05:56:22;;;;;;;12.60;11.40;;;23.70;1.00;;;;;;5044945;28;20908;-75
2023/08/16 05:58:49;;;;;;;11.37;10.27;;;23.80;1.00;;;;;;5041467;28;20491;-76
2023/08/16 06:01:18;;;;;;;11.70;10.70;;;23.90;1.00;;;;;;5042957;28;20963;-76
2023/08/16 06:03:45;;;;;;;12.50;11.03;;;24.00;1.00;;;;;;5039562;28;20487;-76
2023/08/16 06:06:12;;;;;;;10.83;9.73;;;24.10;1.00;;;;;;5044480;28;20468;-76
2023/08/16 06:08:39;;;;;;;11.87;10.87;;;24.10;1.00;;;;;;5040344;28;21569;-75
2023/08/16 06:11:08;;;;;;;11.13;10.13;;;24.00;1.00;;;;;;5043403;28;20508;-76
2023/08/16 06:13:35;;;;;;;13.70;12.33;;;24.10;1.00;;;;;;5039003;28;21002;-76
2023/08/16 06:16:02;;;;;;;12.60;11.50;;;24.00;1.00;;;;;;5050209;28;20565;-76
2023/08/16 06:18:31;;;;;;;13.00;11.63;;;24.10;1.00;;;;;;5048663;28;20546;-75
2023/08/16 06:20:58;;;;;;;13.60;12.23;;;24.20;1.00;;;;;;5050526;28;20472;-75
2023/08/16 06:23:25;;;;;;;12.70;11.60;;;24.30;1.00;;;;;;5048200;28;20499;-76
2023/08/16 06:25:51;;;;;;;11.80;10.90;;;24.50;1.00;;;;;;5044543;28;20481;-76
2023/08/16 06:28:18;;;;;;;12.10;11.20;;;24.70;1.00;;;;;;5049158;28;20452;-75
2023/08/16 06:30:50;;;;;;;12.70;11.60;;;24.80;1.00;;;;;;5045490;28;20469;-76
2023/08/16 06:33:17;;;;;;;12.80;11.60;;;24.70;1.00;;;;;;5047374;28;20485;-75
2023/08/16 06:35:46;;;;;;;13.33;12.10;;;24.70;1.00;;;;;;5046455;28;20487;-74
2023/08/16 06:38:13;;;;;;;11.60;10.70;;;24.70;1.00;;;;;;5035123;28;20462;-74
2023/08/16 06:43:21;;;;;;;13.80;12.40;;;24.80;1.00;;;;;;5076778;27;21115;-75
2023/08/16 06:45:48;;;;;;;12.33;11.43;;;24.80;1.00;;;;;;5065670;27;20850;-75
2023/08/16 06:48:15;;;;;;;13.27;12.10;;;24.90;1.00;;;;;;5071610;27;20909;-76
2023/08/16 06:50:43;;;;;;;13.87;12.47;;;25.00;1.00;;;;;;5074419;27;20474;-77
2023/08/16 06:53:12;;;;;;;14.23;12.80;;;25.10;1.00;;;;;;5072718;28;20468;-76
2023/08/16 06:55:41;;;;;;;13.07;11.93;;;25.20;1.00;;;;;;5071969;27;20463;-76
2023/08/16 06:58:08;;;;;;;12.67;11.63;;;25.30;1.00;;;;;;5071306;27;20532;-75
2023/08/16 07:00:37;;;;;;;14.03;12.63;;;25.30;1.00;;;;;;5073936;27;20480;-77
2023/08/16 07:03:11;;;;;;;13.83;12.33;;;25.30;1.00;;;;;;5069254;28;20481;-77
2023/08/16 07:05:38;;;;;;;11.27;10.37;;;25.40;1.00;;;;;;5077915;27;20468;-76
2023/08/16 07:08:06;;;;;;;12.07;10.97;;;25.20;1.00;;;;;;5072234;27;20483;-77
2023/08/16 07:10:33;;;;;;;11.83;10.83;;;25.30;1.00;;;;;;5075143;27;20491;-77
2023/08/16 07:13:00;;;;;;;12.40;11.13;;;25.30;1.00;;;;;;5073050;27;20899;-78
2023/08/16 07:15:27;;;;;;;11.60;10.60;;;25.30;1.00;;;;;;5076025;27;20666;-78
2023/08/16 07:17:55;;;;;;;11.67;10.57;;;25.30;1.00;;;;;;5074199;27;20480;-79
2023/08/16 07:20:22;;;;;;;11.47;10.47;;;25.20;1.00;;;;;;5076562;28;20506;-77
2023/08/16 07:22:49;;;;;;;14.77;13.37;;;25.20;1.00;;;;;;5073169;27;20481;-77
2023/08/16 07:25:16;;;;;;;15.97;11.20;;;25.30;1.00;;;;;;5071083;28;20484;-77
2023/08/16 07:27:43;;;;;;;12.43;11.27;;;25.60;1.00;;;;;;5070818;28;20578;-78
2023/08/16 07:30:10;;;;;;;11.30;10.20;;;25.70;1.00;;;;;;5067240;28;20462;-77
2023/08/16 07:32:37;;;;;;;11.00;10.10;;;25.90;1.00;;;;;;5059137;28;20847;-76
2023/08/16 07:35:07;;;;;;;14.63;13.43;;;26.00;1.00;;;;;;5066565;27;20544;-76
2023/08/16 07:37:34;;;;;;;10.90;9.40;;;26.10;1.00;;;;;;5077159;27;20468;-76
2023/08/16 07:43:00;;;;;;;9.73;8.60;;;26.10;1.00;;;;;;5041806;27;20561;-77
2023/08/16 07:45:34;;;;;;;16.60;9.60;;;26.10;1.00;;;;;;5081801;27;20472;-73
2023/08/16 07:48:05;;;;;;;10.33;9.37;;;26.20;1.00;;;;;;5072247;27;20459;-78
2023/08/16 07:50:49;;;;;;;9.10;8.17;;;26.20;1.00;;;;;;5071970;28;20464;-78
2023/08/16 07:53:26;;;;;;;10.87;9.77;;;26.30;1.00;;;;;;5060040;27;21167;-79
2023/08/16 07:55:53;;;;;;;13.13;8.70;;;26.40;1.00;;;;;;5055816;27;20986;-77
2023/08/16 07:58:29;;;;;;;9.17;8.27;;;26.50;1.00;;;;;;5066533;27;20465;-78
2023/08/16 08:00:56;;;;;;;9.43;8.67;;;26.60;1.00;;;;;;5060354;27;20451;-78
2023/08/16 08:03:36;;;;;;;8.60;7.90;;;26.80;1.00;;;;;;5064014;27;20487;-78
2023/08/16 08:06:11;;;;;;;8.67;8.07;;;26.80;1.00;;;;;;5055123;28;20459;-76
2023/08/16 08:08:38;;;;;;;6.43;5.93;;;27.10;1.00;;;;;;5061444;27;20459;-76
2023/08/16 08:11:07;;;;;;;6.93;6.03;;;27.40;1.00;;;;;;5058910;27;20482;-76
2023/08/16 08:13:34;;;;;;;9.17;7.50;;;27.60;1.00;;;;;;5063715;27;20970;-75
2023/08/16 08:16:01;;;;;;;8.27;6.67;;;27.70;1.00;;;;;;5060276;28;20955;-77
2023/08/16 08:18:32;;;;;;;8.17;7.37;;;27.80;1.00;;;;;;5057494;28;20470;-75
2023/08/16 08:20:59;;;;;;;8.40;7.50;;;27.90;1.00;;;;;;5061285;27;20850;-76
2023/08/16 08:23:27;;;;;;;7.77;7.17;;;28.00;1.00;;;;;;5057355;28;20572;-76
2023/08/16 08:25:54;;;;;;;8.33;7.53;;;28.10;1.00;;;;;;5058569;27;20500;-77
2023/08/16 08:28:22;;;;;;;7.13;6.50;;;28.20;1.00;;;;;;5065728;28;20555;-74
2023/08/16 08:30:51;;;;;;;6.93;6.27;;;28.30;1.00;;;;;;5058224;28;20470;-77
2023/08/16 08:33:18;;;;;;;8.67;7.87;;;28.50;1.00;;;;;;5059515;27;21033;-77
2023/08/16 08:35:46;;;;;;;8.43;7.10;;;28.60;1.00;;;;;;5061778;27;20467;-80
2023/08/16 08:38:14;;;;;;;6.87;6.17;;;28.70;1.00;;;;;;5060192;27;20505;-81
2023/08/16 08:40:42;;;;;;;6.93;6.43;;;28.80;1.00;;;;;;5061179;27;20525;-81
2023/08/16 08:43:11;;;;;;;8.97;6.80;;;28.70;1.00;;;;;;5059971;27;20477;-79
2023/08/16 08:45:41;;;;;;;7.33;6.73;;;28.60;1.00;;;;;;5061076;28;20477;-78
2023/08/16 08:48:09;;;;;;;5.77;5.10;;;28.70;1.00;;;;;;5060170;27;20470;-76
2023/08/16 08:50:38;;;;;;;6.20;5.60;;;28.90;1.00;;;;;;5065925;28;20528;-76
2023/08/16 08:53:05;;;;;;;5.93;5.43;;;29.10;1.00;;;;;;5056778;27;20598;-79
2023/08/16 08:55:33;;;;;;;103.20;93.40;;;29.20;1.00;;;;;;5060342;28;20541;-76
2023/08/16 08:58:04;;;;;;;5.97;5.47;;;29.20;1.00;;;;;;5048780;27;20465;-77
2023/08/16 09:00:37;;;;;;;8.10;7.17;;;29.20;1.00;;;;;;5062976;27;20459;-77
2023/08/16 09:03:07;;;;;;;6.77;6.17;;;29.30;1.00;;;;;;5058780;27;21221;-76
2023/08/16 09:05:37;;;;;;;6.80;6.20;;;29.50;1.00;;;;;;5050622;28;20906;-76
2023/08/16 09:08:05;;;;;;;7.13;6.43;;;29.60;1.00;;;;;;5065670;27;20459;-75
2023/08/16 09:10:37;;;;;;;6.87;6.30;;;29.60;1.00;;;;;;5060764;28;20459;-76
2023/08/16 09:13:09;;;;;;;6.93;5.30;;;29.60;1.00;;;;;;5056876;27;21057;-78
2023/08/16 09:15:36;;;;;;;6.73;6.10;;;29.60;1.00;;;;;;5063421;28;20455;-81
2023/08/16 09:18:08;;;;;;;6.33;5.83;;;29.70;1.00;;;;;;5058263;28;20534;-80
2023/08/16 09:20:35;;;;;;;7.00;6.30;;;29.70;1.00;;;;;;5056213;28;20472;-79
2023/08/16 09:23:03;;;;;;;7.57;6.50;;;29.70;1.00;;;;;;5057568;28;20559;-80
2023/08/16 09:25:30;;;;;;;6.83;6.20;;;29.60;1.00;;;;;;5053887;28;20976;-76
2023/08/16 09:27:58;;;;;;;6.80;6.20;;;29.50;1.00;;;;;;5055937;28;20487;-81
2023/08/16 09:30:28;;;;;;;7.93;5.93;;;29.60;1.00;;;;;;5036151;28;20464;-81
2023/08/16 09:32:55;;;;;;;9.13;6.30;;;29.70;1.00;;;;;;5054019;27;20471;-79
2023/08/16 09:35:28;;;;;;;6.07;5.47;;;29.70;1.00;;;;;;5060988;28;20463;-79
2023/08/16 09:37:59;;;;;;;6.37;5.87;;;29.60;1.00;;;;;;5059566;27;20917;-81
2023/08/16 09:40:26;;;;;;;8.10;6.80;;;29.60;1.00;;;;;;5059437;28;20465;-79
2023/08/16 09:42:58;;;;;;;7.30;5.13;;;29.50;1.00;;;;;;5054350;27;20468;-77
2023/08/16 09:45:32;;;;;;;5.97;5.47;;;29.60;1.00;;;;;;5058473;28;20475;-83
2023/08/16 09:48:01;;;;;;;6.03;5.13;;;29.80;1.00;;;;;;5058450;28;20455;-77
2023/08/16 09:50:28;;;;;;;5.90;5.40;;;30.00;1.00;;;;;;5058377;28;20460;-77
2023/08/16 09:52:58;;;;;;;7.43;5.83;;;30.10;1.00;;;;;;5052488;27;20499;-76
2023/08/16 09:55:30;;;;;;;6.17;5.57;;;30.30;1.00;;;;;;5058463;28;20451;-78
2023/08/16 09:57:58;;;;;;;6.97;6.27;;;30.20;1.00;;;;;;5053907;27;20474;-79
2023/08/16 10:00:27;;;;;;;5.40;4.40;;;30.00;1.00;;;;;;5040512;28;20479;-79
2023/08/16 10:02:56;;;;;;;5.00;4.60;;;30.60;1.00;;;;;;5057829;27;20466;-79
2023/08/16 10:05:24;;;;;;;4.93;4.40;;;32.30;1.00;;;;;;5061519;28;20533;-78
2023/08/16 10:07:53;;;;;;;13.30;12.20;;;33.90;1.00;;;;;;5049340;27;21056;-79
2023/08/16 10:10:20;;;;;;;4.87;4.47;;;35.20;1.00;;;;;;5075259;27;20611;-80
2023/08/16 10:12:47;;;;;;;6.80;3.80;;;36.10;1.00;;;;;;5041687;28;20472;-78
2023/08/16 10:15:15;;;;;;;4.23;3.93;;;37.00;1.00;;;;;;5049044;28;20529;-79
2023/08/16 10:17:43;;;;;;;5.40;4.90;;;37.60;1.00;;;;;;5055233;27;20658;-77
2023/08/16 10:20:18;;;;;;;5.33;3.77;;;38.00;1.00;;;;;;5059063;28;20604;-79
2023/08/16 10:22:50;;;;;;;3.67;3.37;;;37.90;1.00;;;;;;5057857;28;20463;-78
2023/08/16 10:25:25;;;;;;;4.50;4.10;;;37.90;1.00;;;;;;5043598;28;20459;-78
2023/08/16 10:27:55;;;;;;;3.97;3.60;;;37.80;1.00;;;;;;5056798;28;20526;-78
2023/08/16 10:30:24;;;;;;;4.33;3.20;;;38.00;1.00;;;;;;5056936;28;20530;-78
2023/08/16 10:32:56;;;;;;;3.63;3.40;;;37.90;1.00;;;;;;5059750;27;20564;-79
2023/08/16 10:35:24;;;;;;;11.00;4.40;;;38.30;1.00;;;;;;5055121;28;20793;-80
2023/08/16 10:37:53;;;;;;;4.07;3.27;;;38.80;1.00;;;;;;5053008;27;24629;-80
2023/08/16 10:40:22;;;;;;;3.63;3.33;;;39.20;1.00;;;;;;5048138;28;20455;-79
2023/08/16 10:42:56;;;;;;;4.00;3.70;;;39.40;1.00;;;;;;5054953;28;20529;-82
2023/08/16 10:45:25;;;;;;;3.80;3.50;;;39.50;1.00;;;;;;5062100;28;20470;-78
2023/08/16 10:47:52;;;;;;;4.27;3.87;;;39.60;1.00;;;;;;5055957;27;20460;-80
2023/08/16 10:50:19;;;;;;;3.40;3.10;;;39.60;1.00;;;;;;5041903;28;20465;-82
2023/08/16 10:52:49;;;;;;;4.00;3.70;;;39.80;1.00;;;;;;5046259;28;20571;-78
2023/08/16 10:55:24;;;;;;;4.23;3.40;;;39.80;1.00;;;;;;5061258;28;20465;-77
2023/08/16 10:57:53;;;;;;;3.60;3.40;;;40.20;1.00;;;;;;5058973;27;20462;-78
2023/08/16 11:00:20;;;;;;;3.77;3.47;;;40.60;1.00;;;;;;5059637;28;20507;-78
2023/08/16 11:02:51;;;;;;;3.97;3.60;;;40.90;1.00;;;;;;5055176;27;20890;-78
2023/08/16 11:05:19;;;;;;;4.50;4.10;;;41.70;1.00;;;;;;5059404;28;20891;-78
2023/08/16 11:07:48;;;;;;;3.77;3.47;;;42.00;1.00;;;;;;5061359;28;20470;-78
2023/08/16 11:10:15;;;;;;;4.03;3.73;;;42.50;1.00;;;;;;5054251;28;20479;-77
2023/08/16 11:12:42;;;;;;;4.90;4.43;;;42.40;1.00;;;;;;5057929;28;20472;-77
2023/08/16 11:15:10;;;;;;;4.20;3.90;;;41.00;1.00;;;;;;5056677;28;20451;-78
2023/08/16 11:17:42;;;;;;;4.40;3.60;;;38.70;1.00;;;;;;5061371;28;20551;-77
2023/08/16 11:20:15;;;;;;;3.73;3.43;;;36.90;1.00;;;;;;5059746;27;20475;-77
2023/08/16 11:22:43;;;;;;;6.50;3.90;;;36.00;1.00;;;;;;5034433;27;21133;-78
2023/08/16 11:25:11;;;;;;;4.77;3.70;;;37.00;1.00;;;;;;5064640;28;20464;-79
2023/08/16 11:27:39;;;;;;;3.67;3.30;;;38.50;1.00;;;;;;5057913;28;20478;-78
2023/08/16 11:30:08;;;;;;;4.20;3.80;;;39.80;1.00;;;;;;5065196;27;20468;-78
2023/08/16 11:32:37;;;;;;;4.30;4.00;;;40.70;1.00;;;;;;5065327;27;20513;-77
2023/08/16 11:35:12;;;;;;;3.90;3.60;;;41.20;1.00;;;;;;5066015;27;20459;-78
2023/08/16 11:37:41;;;;;;;4.90;3.77;;;42.00;1.00;;;;;;5062555;27;20474;-76
2023/08/16 11:40:10;;;;;;;3.87;3.57;;;42.40;1.00;;;;;;5065051;27;20503;-78
2023/08/16 11:42:39;;;;;;;4.27;3.87;;;42.90;1.00;;;;;;5062866;27;20565;-77
2023/08/16 11:45:18;;;;;;;2.90;2.60;;;43.30;1.00;;;;;;5064746;27;20454;-79
2023/08/16 11:47:45;;;;;;;3.80;3.50;;;43.80;1.00;;;;;;5081316;27;20464;-77
2023/08/16 11:50:14;;;;;;;3.87;3.57;;;43.90;1.00;;;;;;5061615;28;20871;-77
2023/08/16 11:52:41;;;;;;;4.70;4.00;;;43.70;1.00;;;;;;5083663;27;20576;-77
2023/08/16 11:55:15;;;;;;;3.10;2.90;;;43.40;1.00;;;;;;5069322;27;20518;-77
2023/08/16 11:57:48;;;;;;;3.80;3.50;;;43.80;1.00;;;;;;5062881;27;20486;-77
2023/08/16 12:00:29;;;;;;;3.40;3.10;;;44.30;1.00;;;;;;5061552;28;20495;-77
2023/08/16 12:02:56;;;;;;;3.73;3.43;;;44.70;1.00;;;;;;5066307;27;20478;-78
2023/08/16 12:05:25;;;;;;;3.57;3.27;;;44.40;1.00;;;;;;5059284;27;20485;-79
2023/08/16 12:07:52;;;;;;;3.90;3.60;;;43.80;1.00;;;;;;5060815;27;21218;-78
2023/08/16 12:10:23;;;;;;;6.80;6.20;;;44.10;1.00;;;;;;5059628;27;20499;-80
2023/08/16 12:12:53;;;;;;;4.40;3.53;;;44.40;1.00;;;;;;5077988;27;20471;-79
2023/08/16 12:15:23;;;;;;;4.60;4.03;;;44.80;1.00;;;;;;5063391;28;20988;-78
2023/08/16 12:17:50;;;;;;;3.33;3.13;;;45.60;1.00;;;;;;5056360;27;20476;-78
2023/08/16 12:20:17;;;;;;;5.30;3.40;;;44.70;1.00;;;;;;5060753;27;20551;-76
2023/08/16 12:22:45;;;;;;;5.63;4.00;;;42.20;1.00;;;;;;5059741;27;20486;-76
2023/08/16 12:25:13;;;;;;;4.00;3.70;;;40.00;1.00;;;;;;5064369;27;20456;-78
2023/08/16 12:27:40;;;;;;;28.77;15.23;;;38.40;1.00;;;;;;5065542;27;20462;-76
2023/08/16 12:30:09;;;;;;;5.77;4.43;;;37.10;1.00;;;;;;5061803;28;20458;-77
2023/08/16 12:32:37;;;;;;;4.30;3.90;;;36.10;1.00;;;;;;5066376;27;20894;-77
2023/08/16 12:35:06;;;;;;;6.60;4.23;;;35.50;1.00;;;;;;5075761;27;20452;-78
2023/08/16 12:37:33;;;;;;;4.20;3.90;;;35.00;1.00;;;;;;5059735;27;20463;-77
2023/08/16 12:40:01;;;;;;;6.57;4.30;;;34.50;1.00;;;;;;5057831;28;20998;-77
2023/08/16 12:42:28;;;;;;;4.50;4.10;;;34.00;1.00;;;;;;5061529;28;21046;-76
2023/08/16 12:44:55;;;;;;;9.67;5.10;;;33.70;1.00;;;;;;5056314;27;20488;-77
2023/08/16 12:47:23;;;;;;;4.60;4.20;;;33.50;1.00;;;;;;5059013;27;20558;-75
2023/08/16 12:49:50;;;;;;;4.90;4.43;;;33.50;1.00;;;;;;5056285;27;20476;-76
2023/08/16 12:52:17;;;;;;;4.80;4.37;;;33.40;1.00;;;;;;5052479;28;20940;-76
2023/08/16 12:54:44;;;;;;;26.83;9.37;;;33.40;1.00;;;;;;5052714;27;20464;-76
2023/08/16 12:57:11;;;;;;;11.33;5.10;;;34.50;1.00;;;;;;5046532;28;20978;-77
2023/08/16 12:59:38;;;;;;;6.07;4.63;;;36.30;1.00;;;;;;5055216;27;22374;-76